< < Back
Terminal Aerodrome Forecast


Current Version              Previous Versions:   1  2  3  4  5  6  7  8  9  

Terminal Aerodrome Forecast

202
FTUS42 KFFC 261120
TAFPDK
TAF
KPDK 261120Z 2612/2712 20004KT P6SM SCT006 OVC015
     FM261600 23010KT P6SM OVC025
     FM261800 24010KT P6SM VCSH SCT030 BKN050
     FM262300 23005KT 6SM -SHRA BKN035
     FM270300 29005KT 4SM SHRA BR OVC012
     FM270700 32010KT P6SM OVC008=



Latest METAR

476
SAUS70 KWBC 262300 RRJ
MTRPDK
METAR KPDK 262253Z 22008KT 10SM CLR 21/11 A2980 RMK AO2 SLP082
T02060106


USA.gov is the U.S. government's official web portal to all federal, state and local government web resources and services.